Terminal Aerodrome Forecast
Issued by NWS Cleveland, OH

Home | Current Version | Previous Version | Text Only | Print | Product List | Glossary Off
Versions: 1 2 3 4 5 6 7 8 9 10 11 12 13 14 15

000
FTUS41 KCLE 261329 AAA
TAFTOL
TAF AMD
KTOL 261329Z 2613/2712 05007KT 6SM BR SCT005
      TEMPO 2613/2615 4SM BR OVC005
     FM261500 02004KT 6SM BR SCT020
      TEMPO 2615/2617 BKN020
     FM261700 06005KT P6SM FEW020 SCT250
     FM262100 03005KT P6SM SKC=

USA.gov is the U.S. government's official web portal to all federal, state and local government web resources and services.